sensor_id;sensor_type;location;lat;lon;timestamp;temperature;humidity
11846;DHT22;5982;37.494;-8.758;2023-09-18T00:00:07;19.30;99.90
11846;DHT22;5982;37.494;-8.758;2023-09-18T00:02:37;19.40;99.90
11846;DHT22;5982;37.494;-8.758;2023-09-18T00:05:05;19.30;99.90
11846;DHT22;5982;37.494;-8.758;2023-09-18T00:07:33;19.40;99.90
11846;DHT22;5982;37.494;-8.758;2023-09-18T00:10:01;19.40;99.90
11846;DHT22;5982;37.494;-8.758;2023-09-18T00:12:29;19.40;99.90
11846;DHT22;5982;37.494;-8.758;2023-09-18T00:14:58;19.50;99.90
11846;DHT22;5982;37.494;-8.758;2023-09-18T00:17:26;19.50;99.90
11846;DHT22;5982;37.494;-8.758;2023-09-18T00:19:54;19.50;99.90
11846;DHT22;5982;37.494;-8.758;2023-09-18T00:22:21;19.50;99.90
11846;DHT22;5982;37.494;-8.758;2023-09-18T00:24:50;19.50;99.90
11846;DHT22;5982;37.494;-8.758;2023-09-18T00:27:17;19.40;99.90
11846;DHT22;5982;37.494;-8.758;2023-09-18T00:29:45;19.50;99.90
11846;DHT22;5982;37.494;-8.758;2023-09-18T00:32:14;19.40;99.90
11846;DHT22;5982;37.494;-8.758;2023-09-18T00:34:42;19.40;99.90
11846;DHT22;5982;37.494;-8.758;2023-09-18T00:37:10;19.40;99.90
11846;DHT22;5982;37.494;-8.758;2023-09-18T00:39:38;19.40;99.90
11846;DHT22;5982;37.494;-8.758;2023-09-18T00:42:06;19.30;99.90
11846;DHT22;5982;37.494;-8.758;2023-09-18T00:44:38;19.40;99.90
11846;DHT22;5982;37.494;-8.758;2023-09-18T00:47:06;19.40;99.90
11846;DHT22;5982;37.494;-8.758;2023-09-18T00:49:35;19.30;99.90
11846;DHT22;5982;37.494;-8.758;2023-09-18T00:52:04;19.40;99.90
11846;DHT22;5982;37.494;-8.758;2023-09-18T00:54:32;19.30;99.90
11846;DHT22;5982;37.494;-8.758;2023-09-18T00:57:00;19.30;99.90
11846;DHT22;5982;37.494;-8.758;2023-09-18T00:59:28;19.30;99.90
11846;DHT22;5982;37.494;-8.758;2023-09-18T01:01:56;19.20;99.90
11846;DHT22;5982;37.494;-8.758;2023-09-18T01:04:24;19.20;99.90
11846;DHT22;5982;37.494;-8.758;2023-09-18T01:06:55;19.20;99.90
11846;DHT22;5982;37.494;-8.758;2023-09-18T01:09:24;19.20;99.90
11846;DHT22;5982;37.494;-8.758;2023-09-18T01:11:53;19.20;99.90
11846;DHT22;5982;37.494;-8.758;2023-09-18T01:14:26;19.20;99.90
11846;DHT22;5982;37.494;-8.758;2023-09-18T01:16:56;19.20;99.90
11846;DHT22;5982;37.494;-8.758;2023-09-18T01:19:35;19.20;99.90
11846;DHT22;5982;37.494;-8.758;2023-09-18T01:22:05;19.20;99.90
11846;DHT22;5982;37.494;-8.758;2023-09-18T01:24:36;19.20;99.90
11846;DHT22;5982;37.494;-8.758;2023-09-18T01:27:05;19.30;99.90
11846;DHT22;5982;37.494;-8.758;2023-09-18T01:29:34;19.30;99.90
11846;DHT22;5982;37.494;-8.758;2023-09-18T01:32:02;19.30;99.90
11846;DHT22;5982;37.494;-8.758;2023-09-18T01:34:31;19.40;99.90
11846;DHT22;5982;37.494;-8.758;2023-09-18T01:37:02;19.40;99.90
11846;DHT22;5982;37.494;-8.758;2023-09-18T01:39:31;19.40;99.90
11846;DHT22;5982;37.494;-8.758;2023-09-18T01:42:02;19.30;99.90
11846;DHT22;5982;37.494;-8.758;2023-09-18T01:44:31;19.30;99.90
11846;DHT22;5982;37.494;-8.758;2023-09-18T01:46:59;19.30;99.90
11846;DHT22;5982;37.494;-8.758;2023-09-18T01:49:30;19.30;99.90
11846;DHT22;5982;37.494;-8.758;2023-09-18T01:51:59;19.30;99.90
11846;DHT22;5982;37.494;-8.758;2023-09-18T01:54:27;19.20;99.90
11846;DHT22;5982;37.494;-8.758;2023-09-18T01:56:55;19.10;99.90
11846;DHT22;5982;37.494;-8.758;2023-09-18T01:59:24;19.10;99.90
11846;DHT22;5982;37.494;-8.758;2023-09-18T02:01:52;19.20;99.90
11846;DHT22;5982;37.494;-8.758;2023-09-18T02:04:20;19.20;99.90
11846;DHT22;5982;37.494;-8.758;2023-09-18T02:06:49;19.20;99.90
11846;DHT22;5982;37.494;-8.758;2023-09-18T02:09:17;19.20;99.90
11846;DHT22;5982;37.494;-8.758;2023-09-18T02:11:46;19.20;99.90
11846;DHT22;5982;37.494;-8.758;2023-09-18T02:14:14;19.20;99.90
11846;DHT22;5982;37.494;-8.758;2023-09-18T02:16:44;19.20;99.90
11846;DHT22;5982;37.494;-8.758;2023-09-18T02:19:12;19.20;99.90
11846;DHT22;5982;37.494;-8.758;2023-09-18T02:21:40;19.10;99.90
11846;DHT22;5982;37.494;-8.758;2023-09-18T02:24:08;19.20;99.90
11846;DHT22;5982;37.494;-8.758;2023-09-18T02:26:36;19.10;99.90
11846;DHT22;5982;37.494;-8.758;2023-09-18T02:29:05;19.10;99.90
11846;DHT22;5982;37.494;-8.758;2023-09-18T02:31:35;19.10;99.90
11846;DHT22;5982;37.494;-8.758;2023-09-18T02:34:04;19.10;99.90
11846;DHT22;5982;37.494;-8.758;2023-09-18T02:36:32;19.10;99.90
11846;DHT22;5982;37.494;-8.758;2023-09-18T02:39:00;19.10;99.90
11846;DHT22;5982;37.494;-8.758;2023-09-18T02:41:28;19.10;99.90
11846;DHT22;5982;37.494;-8.758;2023-09-18T02:43:56;19.10;99.90
11846;DHT22;5982;37.494;-8.758;2023-09-18T02:46:24;19.00;99.90
11846;DHT22;5982;37.494;-8.758;2023-09-18T02:48:51;19.00;99.90
11846;DHT22;5982;37.494;-8.758;2023-09-18T02:51:21;18.90;99.90
11846;DHT22;5982;37.494;-8.758;2023-09-18T02:53:50;18.90;99.90
11846;DHT22;5982;37.494;-8.758;2023-09-18T02:56:17;18.80;99.90
11846;DHT22;5982;37.494;-8.758;2023-09-18T02:58:45;18.90;99.90
11846;DHT22;5982;37.494;-8.758;2023-09-18T03:01:13;18.90;99.90
11846;DHT22;5982;37.494;-8.758;2023-09-18T03:03:41;18.80;99.90
11846;DHT22;5982;37.494;-8.758;2023-09-18T03:06:08;18.90;99.90
11846;DHT22;5982;37.494;-8.758;2023-09-18T03:08:38;18.80;99.90
11846;DHT22;5982;37.494;-8.758;2023-09-18T03:11:10;18.80;99.90
11846;DHT22;5982;37.494;-8.758;2023-09-18T03:13:42;18.80;99.90
11846;DHT22;5982;37.494;-8.758;2023-09-18T03:19:01;18.80;99.90
11846;DHT22;5982;37.494;-8.758;2023-09-18T03:21:29;18.80;99.90
11846;DHT22;5982;37.494;-8.758;2023-09-18T03:24:00;18.80;99.90
11846;DHT22;5982;37.494;-8.758;2023-09-18T03:26:28;18.80;99.90
11846;DHT22;5982;37.494;-8.758;2023-09-18T03:28:56;18.80;99.90
11846;DHT22;5982;37.494;-8.758;2023-09-18T03:31:23;18.80;99.90
11846;DHT22;5982;37.494;-8.758;2023-09-18T03:33:51;18.80;99.90
11846;DHT22;5982;37.494;-8.758;2023-09-18T03:36:20;18.80;99.90
11846;DHT22;5982;37.494;-8.758;2023-09-18T03:38:49;18.70;99.90
11846;DHT22;5982;37.494;-8.758;2023-09-18T03:41:18;18.70;99.90
11846;DHT22;5982;37.494;-8.758;2023-09-18T03:43:46;18.60;99.90
11846;DHT22;5982;37.494;-8.758;2023-09-18T03:46:14;18.60;99.90
11846;DHT22;5982;37.494;-8.758;2023-09-18T03:48:42;18.60;99.90
11846;DHT22;5982;37.494;-8.758;2023-09-18T03:51:10;18.50;99.90
11846;DHT22;5982;37.494;-8.758;2023-09-18T03:53:41;18.60;99.90
11846;DHT22;5982;37.494;-8.758;2023-09-18T03:56:09;18.50;99.90
11846;DHT22;5982;37.494;-8.758;2023-09-18T03:58:38;18.50;99.90
11846;DHT22;5982;37.494;-8.758;2023-09-18T04:01:07;18.50;99.90
11846;DHT22;5982;37.494;-8.758;2023-09-18T04:03:34;18.50;99.90
11846;DHT22;5982;37.494;-8.758;2023-09-18T04:06:02;18.50;99.90
11846;DHT22;5982;37.494;-8.758;2023-09-18T04:08:30;18.50;99.90
11846;DHT22;5982;37.494;-8.758;2023-09-18T04:10:58;18.50;99.90
11846;DHT22;5982;37.494;-8.758;2023-09-18T04:13:26;18.50;99.90
11846;DHT22;5982;37.494;-8.758;2023-09-18T04:15:55;18.50;99.90
11846;DHT22;5982;37.494;-8.758;2023-09-18T04:18:26;18.50;99.90
11846;DHT22;5982;37.494;-8.758;2023-09-18T04:20:54;18.40;99.90
11846;DHT22;5982;37.494;-8.758;2023-09-18T04:23:23;18.40;99.90
11846;DHT22;5982;37.494;-8.758;2023-09-18T04:25:52;18.40;99.90
11846;DHT22;5982;37.494;-8.758;2023-09-18T04:28:20;18.40;99.90
11846;DHT22;5982;37.494;-8.758;2023-09-18T04:30:49;18.40;99.90
11846;DHT22;5982;37.494;-8.758;2023-09-18T04:33:18;18.50;99.90
11846;DHT22;5982;37.494;-8.758;2023-09-18T04:35:47;18.50;99.90
11846;DHT22;5982;37.494;-8.758;2023-09-18T04:38:14;18.50;99.90
11846;DHT22;5982;37.494;-8.758;2023-09-18T04:40:44;18.50;99.90
11846;DHT22;5982;37.494;-8.758;2023-09-18T04:43:12;18.50;99.90
11846;DHT22;5982;37.494;-8.758;2023-09-18T04:45:40;18.40;99.90
11846;DHT22;5982;37.494;-8.758;2023-09-18T04:48:08;18.40;99.90
11846;DHT22;5982;37.494;-8.758;2023-09-18T04:50:37;18.40;99.90
11846;DHT22;5982;37.494;-8.758;2023-09-18T04:53:05;18.40;99.90
11846;DHT22;5982;37.494;-8.758;2023-09-18T04:55:34;18.40;99.90
11846;DHT22;5982;37.494;-8.758;2023-09-18T04:58:03;18.40;99.90
11846;DHT22;5982;37.494;-8.758;2023-09-18T05:00:32;18.40;99.90
11846;DHT22;5982;37.494;-8.758;2023-09-18T05:03:00;18.40;99.90
11846;DHT22;5982;37.494;-8.758;2023-09-18T05:05:29;18.40;99.90
11846;DHT22;5982;37.494;-8.758;2023-09-18T05:07:58;18.40;99.90
11846;DHT22;5982;37.494;-8.758;2023-09-18T05:10:26;18.40;99.90
11846;DHT22;5982;37.494;-8.758;2023-09-18T05:12:53;18.30;99.90
11846;DHT22;5982;37.494;-8.758;2023-09-18T05:15:24;18.30;99.90
11846;DHT22;5982;37.494;-8.758;2023-09-18T05:17:54;18.30;99.90
11846;DHT22;5982;37.494;-8.758;2023-09-18T05:20:24;18.30;99.90
11846;DHT22;5982;37.494;-8.758;2023-09-18T05:22:52;18.30;99.90
11846;DHT22;5982;37.494;-8.758;2023-09-18T05:25:21;18.30;99.90
11846;DHT22;5982;37.494;-8.758;2023-09-18T05:27:50;18.40;99.90
11846;DHT22;5982;37.494;-8.758;2023-09-18T05:30:23;18.40;99.90
11846;DHT22;5982;37.494;-8.758;2023-09-18T05:32:53;18.40;99.90
11846;DHT22;5982;37.494;-8.758;2023-09-18T05:35:21;18.40;99.90
11846;DHT22;5982;37.494;-8.758;2023-09-18T05:37:49;18.40;99.90
11846;DHT22;5982;37.494;-8.758;2023-09-18T05:40:18;18.40;99.90
11846;DHT22;5982;37.494;-8.758;2023-09-18T05:42:47;18.30;99.90
11846;DHT22;5982;37.494;-8.758;2023-09-18T05:45:15;18.20;99.90
11846;DHT22;5982;37.494;-8.758;2023-09-18T05:47:42;18.30;99.90
11846;DHT22;5982;37.494;-8.758;2023-09-18T05:50:11;18.30;99.90
11846;DHT22;5982;37.494;-8.758;2023-09-18T05:52:41;18.30;99.90
11846;DHT22;5982;37.494;-8.758;2023-09-18T05:55:10;18.30;99.90
11846;DHT22;5982;37.494;-8.758;2023-09-18T05:57:38;18.20;99.90
11846;DHT22;5982;37.494;-8.758;2023-09-18T06:00:08;18.20;99.90
11846;DHT22;5982;37.494;-8.758;2023-09-18T06:02:38;18.20;99.90
11846;DHT22;5982;37.494;-8.758;2023-09-18T06:05:07;18.10;99.90
11846;DHT22;5982;37.494;-8.758;2023-09-18T06:07:37;18.10;99.90
11846;DHT22;5982;37.494;-8.758;2023-09-18T06:10:05;18.10;99.90
11846;DHT22;5982;37.494;-8.758;2023-09-18T06:12:34;18.00;99.90
11846;DHT22;5982;37.494;-8.758;2023-09-18T06:15:01;18.00;99.90
11846;DHT22;5982;37.494;-8.758;2023-09-18T06:17:32;17.80;99.90
11846;DHT22;5982;37.494;-8.758;2023-09-18T06:20:00;17.80;99.90
11846;DHT22;5982;37.494;-8.758;2023-09-18T06:22:29;17.80;99.90
11846;DHT22;5982;37.494;-8.758;2023-09-18T06:24:57;17.80;99.90
11846;DHT22;5982;37.494;-8.758;2023-09-18T06:27:25;17.70;99.90
11846;DHT22;5982;37.494;-8.758;2023-09-18T06:29:52;17.80;99.90
11846;DHT22;5982;37.494;-8.758;2023-09-18T06:32:20;17.70;99.90
11846;DHT22;5982;37.494;-8.758;2023-09-18T06:34:50;17.70;99.90
11846;DHT22;5982;37.494;-8.758;2023-09-18T06:37:17;17.70;99.90
11846;DHT22;5982;37.494;-8.758;2023-09-18T06:39:46;17.70;99.90
11846;DHT22;5982;37.494;-8.758;2023-09-18T06:42:14;17.80;99.90
11846;DHT22;5982;37.494;-8.758;2023-09-18T06:44:42;17.80;99.90
11846;DHT22;5982;37.494;-8.758;2023-09-18T06:47:09;17.80;99.90
11846;DHT22;5982;37.494;-8.758;2023-09-18T06:49:37;17.80;99.90
11846;DHT22;5982;37.494;-8.758;2023-09-18T06:52:09;17.80;99.90
11846;DHT22;5982;37.494;-8.758;2023-09-18T06:54:37;17.90;99.90
11846;DHT22;5982;37.494;-8.758;2023-09-18T06:57:04;18.10;99.90
11846;DHT22;5982;37.494;-8.758;2023-09-18T06:59:32;18.20;99.90
11846;DHT22;5982;37.494;-8.758;2023-09-18T07:02:00;18.30;99.90
11846;DHT22;5982;37.494;-8.758;2023-09-18T07:04:28;18.40;99.90
11846;DHT22;5982;37.494;-8.758;2023-09-18T07:06:56;18.50;99.90
11846;DHT22;5982;37.494;-8.758;2023-09-18T07:09:25;18.50;99.90
11846;DHT22;5982;37.494;-8.758;2023-09-18T07:11:53;18.60;99.90
11846;DHT22;5982;37.494;-8.758;2023-09-18T07:14:21;18.70;99.90
11846;DHT22;5982;37.494;-8.758;2023-09-18T07:16:49;18.70;99.90
11846;DHT22;5982;37.494;-8.758;2023-09-18T07:19:17;18.90;99.90
11846;DHT22;5982;37.494;-8.758;2023-09-18T07:21:45;19.10;99.90
11846;DHT22;5982;37.494;-8.758;2023-09-18T07:24:13;19.40;99.90
11846;DHT22;5982;37.494;-8.758;2023-09-18T07:26:45;19.50;99.90
11846;DHT22;5982;37.494;-8.758;2023-09-18T07:29:13;19.50;99.90
11846;DHT22;5982;37.494;-8.758;2023-09-18T07:31:42;19.60;99.90
11846;DHT22;5982;37.494;-8.758;2023-09-18T07:34:10;19.70;99.90
11846;DHT22;5982;37.494;-8.758;2023-09-18T07:36:38;19.70;99.90
11846;DHT22;5982;37.494;-8.758;2023-09-18T07:39:05;19.70;99.90
11846;DHT22;5982;37.494;-8.758;2023-09-18T07:41:33;19.90;99.90
11846;DHT22;5982;37.494;-8.758;2023-09-18T07:44:02;20.10;99.90
11846;DHT22;5982;37.494;-8.758;2023-09-18T07:46:30;20.40;99.90
11846;DHT22;5982;37.494;-8.758;2023-09-18T07:48:58;20.50;99.90
11846;DHT22;5982;37.494;-8.758;2023-09-18T07:51:26;20.70;99.90
11846;DHT22;5982;37.494;-8.758;2023-09-18T07:53:54;21.00;99.90
11846;DHT22;5982;37.494;-8.758;2023-09-18T07:56:22;21.10;99.90
11846;DHT22;5982;37.494;-8.758;2023-09-18T07:58:49;21.30;99.90
11846;DHT22;5982;37.494;-8.758;2023-09-18T08:01:19;21.60;99.90
11846;DHT22;5982;37.494;-8.758;2023-09-18T08:03:48;21.90;99.90
11846;DHT22;5982;37.494;-8.758;2023-09-18T08:06:15;22.10;99.90
11846;DHT22;5982;37.494;-8.758;2023-09-18T08:08:44;22.30;99.90
11846;DHT22;5982;37.494;-8.758;2023-09-18T08:11:13;22.40;99.90
11846;DHT22;5982;37.494;-8.758;2023-09-18T08:13:41;22.60;99.90
11846;DHT22;5982;37.494;-8.758;2023-09-18T08:16:09;22.70;99.90
11846;DHT22;5982;37.494;-8.758;2023-09-18T08:18:38;22.70;99.90
11846;DHT22;5982;37.494;-8.758;2023-09-18T08:21:06;22.80;99.90
11846;DHT22;5982;37.494;-8.758;2023-09-18T08:23:34;22.90;99.90
11846;DHT22;5982;37.494;-8.758;2023-09-18T08:26:03;22.90;99.90
11846;DHT22;5982;37.494;-8.758;2023-09-18T08:28:31;23.10;99.90
11846;DHT22;5982;37.494;-8.758;2023-09-18T08:31:01;23.10;99.90
11846;DHT22;5982;37.494;-8.758;2023-09-18T08:33:29;23.30;99.90
11846;DHT22;5982;37.494;-8.758;2023-09-18T08:35:58;23.40;99.90
11846;DHT22;5982;37.494;-8.758;2023-09-18T08:38:26;23.70;99.90
11846;DHT22;5982;37.494;-8.758;2023-09-18T08:40:54;23.90;99.90
11846;DHT22;5982;37.494;-8.758;2023-09-18T08:43:24;24.00;99.90
11846;DHT22;5982;37.494;-8.758;2023-09-18T08:45:52;24.20;99.90
11846;DHT22;5982;37.494;-8.758;2023-09-18T08:48:21;24.30;99.90
11846;DHT22;5982;37.494;-8.758;2023-09-18T08:50:49;24.30;99.90
11846;DHT22;5982;37.494;-8.758;2023-09-18T08:53:19;24.40;99.90
11846;DHT22;5982;37.494;-8.758;2023-09-18T08:55:47;24.40;99.90
11846;DHT22;5982;37.494;-8.758;2023-09-18T08:58:15;24.40;99.90
11846;DHT22;5982;37.494;-8.758;2023-09-18T09:00:45;24.30;99.90
11846;DHT22;5982;37.494;-8.758;2023-09-18T09:03:13;24.40;99.90
11846;DHT22;5982;37.494;-8.758;2023-09-18T09:05:40;24.40;99.90
11846;DHT22;5982;37.494;-8.758;2023-09-18T09:08:08;24.30;99.90
11846;DHT22;5982;37.494;-8.758;2023-09-18T09:10:37;24.30;99.90
11846;DHT22;5982;37.494;-8.758;2023-09-18T09:13:05;24.40;99.90
11846;DHT22;5982;37.494;-8.758;2023-09-18T09:15:34;24.50;99.90
11846;DHT22;5982;37.494;-8.758;2023-09-18T09:18:11;24.50;99.90
11846;DHT22;5982;37.494;-8.758;2023-09-18T09:20:40;24.80;99.90
11846;DHT22;5982;37.494;-8.758;2023-09-18T09:23:08;24.90;99.90
11846;DHT22;5982;37.494;-8.758;2023-09-18T09:25:38;24.90;99.90
11846;DHT22;5982;37.494;-8.758;2023-09-18T09:28:06;25.00;99.90
11846;DHT22;5982;37.494;-8.758;2023-09-18T09:30:35;25.30;99.90
11846;DHT22;5982;37.494;-8.758;2023-09-18T09:33:03;25.30;99.90
11846;DHT22;5982;37.494;-8.758;2023-09-18T09:35:33;25.30;99.90
11846;DHT22;5982;37.494;-8.758;2023-09-18T09:38:03;25.70;99.90
11846;DHT22;5982;37.494;-8.758;2023-09-18T09:40:34;25.90;99.90
11846;DHT22;5982;37.494;-8.758;2023-09-18T09:43:05;25.80;99.90
11846;DHT22;5982;37.494;-8.758;2023-09-18T09:45:35;25.50;99.90
11846;DHT22;5982;37.494;-8.758;2023-09-18T09:48:04;25.30;99.90
11846;DHT22;5982;37.494;-8.758;2023-09-18T09:50:32;24.90;99.90
11846;DHT22;5982;37.494;-8.758;2023-09-18T09:53:00;24.80;99.90
11846;DHT22;5982;37.494;-8.758;2023-09-18T09:55:29;24.80;99.90
11846;DHT22;5982;37.494;-8.758;2023-09-18T09:57:59;24.80;99.90
11846;DHT22;5982;37.494;-8.758;2023-09-18T10:00:30;24.70;99.90
11846;DHT22;5982;37.494;-8.758;2023-09-18T10:03:03;24.90;99.90
11846;DHT22;5982;37.494;-8.758;2023-09-18T10:05:32;25.20;99.90
11846;DHT22;5982;37.494;-8.758;2023-09-18T10:08:02;25.60;99.90
11846;DHT22;5982;37.494;-8.758;2023-09-18T10:10:35;26.00;99.90
11846;DHT22;5982;37.494;-8.758;2023-09-18T10:13:07;26.10;99.90
11846;DHT22;5982;37.494;-8.758;2023-09-18T10:15:39;26.20;99.90
11846;DHT22;5982;37.494;-8.758;2023-09-18T10:18:13;26.20;99.90
11846;DHT22;5982;37.494;-8.758;2023-09-18T10:20:49;26.10;99.90
11846;DHT22;5982;37.494;-8.758;2023-09-18T10:23:22;25.80;99.90
11846;DHT22;5982;37.494;-8.758;2023-09-18T10:25:57;25.50;99.90
11846;DHT22;5982;37.494;-8.758;2023-09-18T10:28:28;25.20;99.90
11846;DHT22;5982;37.494;-8.758;2023-09-18T10:30:58;24.80;99.90
11846;DHT22;5982;37.494;-8.758;2023-09-18T10:33:29;24.80;99.90
11846;DHT22;5982;37.494;-8.758;2023-09-18T10:35:57;24.90;99.90
11846;DHT22;5982;37.494;-8.758;2023-09-18T10:38:26;25.10;99.90
11846;DHT22;5982;37.494;-8.758;2023-09-18T10:40:55;25.10;99.90
11846;DHT22;5982;37.494;-8.758;2023-09-18T10:43:23;25.00;99.90
11846;DHT22;5982;37.494;-8.758;2023-09-18T10:45:51;25.30;99.90
11846;DHT22;5982;37.494;-8.758;2023-09-18T10:48:21;25.20;99.90
11846;DHT22;5982;37.494;-8.758;2023-09-18T10:50:50;25.30;99.90
11846;DHT22;5982;37.494;-8.758;2023-09-18T10:53:18;25.30;99.90
11846;DHT22;5982;37.494;-8.758;2023-09-18T10:55:48;25.30;99.90
11846;DHT22;5982;37.494;-8.758;2023-09-18T10:58:22;25.50;99.90
11846;DHT22;5982;37.494;-8.758;2023-09-18T11:00:51;25.70;99.90
11846;DHT22;5982;37.494;-8.758;2023-09-18T11:03:22;25.80;99.90
11846;DHT22;5982;37.494;-8.758;2023-09-18T11:06:02;25.70;99.90
11846;DHT22;5982;37.494;-8.758;2023-09-18T11:08:31;25.50;99.90
11846;DHT22;5982;37.494;-8.758;2023-09-18T11:11:03;25.40;99.90
11846;DHT22;5982;37.494;-8.758;2023-09-18T11:13:38;25.70;99.90
11846;DHT22;5982;37.494;-8.758;2023-09-18T11:16:14;25.90;99.90
11846;DHT22;5982;37.494;-8.758;2023-09-18T11:18:47;25.90;99.90
11846;DHT22;5982;37.494;-8.758;2023-09-18T11:21:16;26.10;99.90
11846;DHT22;5982;37.494;-8.758;2023-09-18T11:23:44;26.10;99.90
11846;DHT22;5982;37.494;-8.758;2023-09-18T11:26:14;26.30;99.90
11846;DHT22;5982;37.494;-8.758;2023-09-18T11:28:42;26.40;99.90
11846;DHT22;5982;37.494;-8.758;2023-09-18T11:31:12;26.30;99.90
11846;DHT22;5982;37.494;-8.758;2023-09-18T11:33:40;26.50;99.90
11846;DHT22;5982;37.494;-8.758;2023-09-18T11:36:13;26.70;99.90
11846;DHT22;5982;37.494;-8.758;2023-09-18T11:38:51;26.80;99.90
11846;DHT22;5982;37.494;-8.758;2023-09-18T11:41:23;26.90;99.90
11846;DHT22;5982;37.494;-8.758;2023-09-18T11:43:52;26.40;99.90
11846;DHT22;5982;37.494;-8.758;2023-09-18T11:46:20;26.20;99.90
11846;DHT22;5982;37.494;-8.758;2023-09-18T11:48:50;26.30;99.90
11846;DHT22;5982;37.494;-8.758;2023-09-18T11:51:23;26.30;99.90
11846;DHT22;5982;37.494;-8.758;2023-09-18T11:53:52;26.30;99.90
11846;DHT22;5982;37.494;-8.758;2023-09-18T11:56:21;26.40;99.90
11846;DHT22;5982;37.494;-8.758;2023-09-18T11:58:50;26.50;99.90
11846;DHT22;5982;37.494;-8.758;2023-09-18T12:01:20;26.50;99.90
11846;DHT22;5982;37.494;-8.758;2023-09-18T12:03:53;26.50;99.90
11846;DHT22;5982;37.494;-8.758;2023-09-18T12:06:22;26.50;99.90
11846;DHT22;5982;37.494;-8.758;2023-09-18T12:08:51;26.60;99.90
11846;DHT22;5982;37.494;-8.758;2023-09-18T12:11:19;26.70;99.90
11846;DHT22;5982;37.494;-8.758;2023-09-18T12:13:50;26.70;99.90
11846;DHT22;5982;37.494;-8.758;2023-09-18T12:16:18;26.50;99.90
11846;DHT22;5982;37.494;-8.758;2023-09-18T12:18:46;26.30;99.90
11846;DHT22;5982;37.494;-8.758;2023-09-18T12:21:15;26.30;99.90
11846;DHT22;5982;37.494;-8.758;2023-09-18T12:23:45;26.30;99.90
11846;DHT22;5982;37.494;-8.758;2023-09-18T12:26:14;26.50;99.90
11846;DHT22;5982;37.494;-8.758;2023-09-18T12:28:43;26.70;99.90
11846;DHT22;5982;37.494;-8.758;2023-09-18T12:31:11;26.80;99.90
11846;DHT22;5982;37.494;-8.758;2023-09-18T12:33:40;26.80;99.90
11846;DHT22;5982;37.494;-8.758;2023-09-18T12:36:10;26.80;99.90
11846;DHT22;5982;37.494;-8.758;2023-09-18T12:38:40;26.70;99.90
11846;DHT22;5982;37.494;-8.758;2023-09-18T12:41:10;26.80;99.90
11846;DHT22;5982;37.494;-8.758;2023-09-18T12:43:40;26.70;99.90
11846;DHT22;5982;37.494;-8.758;2023-09-18T12:46:08;26.60;99.90
11846;DHT22;5982;37.494;-8.758;2023-09-18T12:48:36;26.70;99.90
11846;DHT22;5982;37.494;-8.758;2023-09-18T12:51:07;26.70;99.90
11846;DHT22;5982;37.494;-8.758;2023-09-18T12:53:35;26.60;99.90
11846;DHT22;5982;37.494;-8.758;2023-09-18T12:56:06;26.60;99.90
11846;DHT22;5982;37.494;-8.758;2023-09-18T12:58:36;26.50;99.90
11846;DHT22;5982;37.494;-8.758;2023-09-18T13:01:04;26.50;99.90
11846;DHT22;5982;37.494;-8.758;2023-09-18T13:03:35;26.40;99.90
11846;DHT22;5982;37.494;-8.758;2023-09-18T13:06:11;26.50;99.90
11846;DHT22;5982;37.494;-8.758;2023-09-18T13:08:43;26.50;99.90
11846;DHT22;5982;37.494;-8.758;2023-09-18T13:11:11;26.50;99.90
11846;DHT22;5982;37.494;-8.758;2023-09-18T13:13:42;26.50;99.90
11846;DHT22;5982;37.494;-8.758;2023-09-18T13:16:10;26.60;99.90
11846;DHT22;5982;37.494;-8.758;2023-09-18T13:18:38;26.70;99.90
11846;DHT22;5982;37.494;-8.758;2023-09-18T13:21:09;26.80;99.90
11846;DHT22;5982;37.494;-8.758;2023-09-18T13:23:37;26.80;99.90
11846;DHT22;5982;37.494;-8.758;2023-09-18T13:26:05;26.70;99.90
11846;DHT22;5982;37.494;-8.758;2023-09-18T13:28:34;26.70;99.90
11846;DHT22;5982;37.494;-8.758;2023-09-18T13:31:04;26.60;99.90
11846;DHT22;5982;37.494;-8.758;2023-09-18T13:33:32;26.60;99.90
11846;DHT22;5982;37.494;-8.758;2023-09-18T13:36:00;26.50;99.90
11846;DHT22;5982;37.494;-8.758;2023-09-18T13:38:28;26.50;99.90
11846;DHT22;5982;37.494;-8.758;2023-09-18T13:40:56;26.60;99.90
11846;DHT22;5982;37.494;-8.758;2023-09-18T13:43:24;26.60;99.90
11846;DHT22;5982;37.494;-8.758;2023-09-18T13:45:53;26.70;99.90
11846;DHT22;5982;37.494;-8.758;2023-09-18T13:48:23;26.80;99.90
11846;DHT22;5982;37.494;-8.758;2023-09-18T13:50:51;27.00;99.90
11846;DHT22;5982;37.494;-8.758;2023-09-18T13:53:19;27.10;99.90
11846;DHT22;5982;37.494;-8.758;2023-09-18T13:55:48;27.20;99.90
11846;DHT22;5982;37.494;-8.758;2023-09-18T13:58:15;27.30;99.90
11846;DHT22;5982;37.494;-8.758;2023-09-18T14:00:43;27.30;99.90
11846;DHT22;5982;37.494;-8.758;2023-09-18T14:03:11;27.10;99.90
11846;DHT22;5982;37.494;-8.758;2023-09-18T14:05:42;27.10;99.90
11846;DHT22;5982;37.494;-8.758;2023-09-18T14:08:10;26.90;99.90
11846;DHT22;5982;37.494;-8.758;2023-09-18T14:10:37;26.80;99.90
11846;DHT22;5982;37.494;-8.758;2023-09-18T14:13:05;26.80;99.90
11846;DHT22;5982;37.494;-8.758;2023-09-18T14:15:33;26.80;99.90
11846;DHT22;5982;37.494;-8.758;2023-09-18T14:18:02;27.00;99.90
11846;DHT22;5982;37.494;-8.758;2023-09-18T14:20:31;27.10;99.90
11846;DHT22;5982;37.494;-8.758;2023-09-18T14:23:00;27.20;99.90
11846;DHT22;5982;37.494;-8.758;2023-09-18T14:25:29;27.10;99.90
11846;DHT22;5982;37.494;-8.758;2023-09-18T14:27:56;27.10;99.90
11846;DHT22;5982;37.494;-8.758;2023-09-18T14:30:24;26.90;99.90
11846;DHT22;5982;37.494;-8.758;2023-09-18T14:32:57;26.70;99.90
11846;DHT22;5982;37.494;-8.758;2023-09-18T14:35:26;26.70;99.90
11846;DHT22;5982;37.494;-8.758;2023-09-18T14:37:54;26.80;99.90
11846;DHT22;5982;37.494;-8.758;2023-09-18T14:40:24;27.00;99.90
11846;DHT22;5982;37.494;-8.758;2023-09-18T14:42:52;27.00;99.90
11846;DHT22;5982;37.494;-8.758;2023-09-18T14:45:20;26.90;99.90
11846;DHT22;5982;37.494;-8.758;2023-09-18T14:47:47;26.80;99.90
11846;DHT22;5982;37.494;-8.758;2023-09-18T14:50:15;26.80;99.90
11846;DHT22;5982;37.494;-8.758;2023-09-18T14:52:43;26.80;99.90
11846;DHT22;5982;37.494;-8.758;2023-09-18T14:55:11;26.90;99.90
11846;DHT22;5982;37.494;-8.758;2023-09-18T14:57:40;27.10;99.90
11846;DHT22;5982;37.494;-8.758;2023-09-18T15:00:08;27.20;99.90
11846;DHT22;5982;37.494;-8.758;2023-09-18T15:02:38;27.10;99.90
11846;DHT22;5982;37.494;-8.758;2023-09-18T15:05:06;27.20;99.90
11846;DHT22;5982;37.494;-8.758;2023-09-18T15:07:38;27.30;99.90
11846;DHT22;5982;37.494;-8.758;2023-09-18T15:10:05;27.30;99.90
11846;DHT22;5982;37.494;-8.758;2023-09-18T15:12:35;27.20;99.90
11846;DHT22;5982;37.494;-8.758;2023-09-18T15:15:05;27.20;99.90
11846;DHT22;5982;37.494;-8.758;2023-09-18T15:17:33;27.20;99.90
11846;DHT22;5982;37.494;-8.758;2023-09-18T15:20:02;27.10;99.90
11846;DHT22;5982;37.494;-8.758;2023-09-18T15:22:31;26.80;99.90
11846;DHT22;5982;37.494;-8.758;2023-09-18T15:24:58;26.70;99.90
11846;DHT22;5982;37.494;-8.758;2023-09-18T15:27:27;26.60;99.90
11846;DHT22;5982;37.494;-8.758;2023-09-18T15:29:54;26.60;99.90
11846;DHT22;5982;37.494;-8.758;2023-09-18T15:32:24;26.70;99.90
11846;DHT22;5982;37.494;-8.758;2023-09-18T15:34:51;26.70;99.90
11846;DHT22;5982;37.494;-8.758;2023-09-18T15:37:19;26.60;99.90
11846;DHT22;5982;37.494;-8.758;2023-09-18T15:39:47;26.60;99.90
11846;DHT22;5982;37.494;-8.758;2023-09-18T15:42:17;26.60;99.90